Weather at Altagracia Airport

Public forecast

Using degrees Celsius for public forecast. Weather courtesy of forecast.io.

Closest aviation weather report (METAR) to Altagracia Airport

Closest report is Frank Pais International Airport, 25.8 nm (47.7 km) NNW. Retrieved 2020/11/26 02:50 UTC (24 minutes ago):

MUHG 260250Z 03005KT 9000 SKC 22/20 Q1018

Closest aviation forecast (TAF) to Altagracia Airport

Closest forecast is Frank Pais International Airport, 25.8 nm (47.7 km) NNW. Retrieved 2020-11-26 00:09 UTC (3 hours ago):

TAF MUHG 252300Z 2600/2624 07012KT 9000 FEW040 BECMG 2601/2603 06005KT TEMPO 2608/2612 5000 BR SCT060 BECMG 2613/2615 07012KT